createdAt,value
2018-08-23T00:01:30.235Z,25.37
2018-08-23T00:04:04.496Z,24.43
2018-08-23T00:06:31.754Z,24.80
2018-08-23T00:08:58.986Z,24.23
2018-08-23T00:11:30.902Z,23.80
2018-08-23T00:13:58.177Z,25.27
2018-08-23T00:16:33.445Z,27.73
2018-08-23T00:19:01.644Z,27.73
2018-08-23T00:21:29.102Z,25.70
2018-08-23T00:24:05.162Z,28.17
2018-08-23T00:26:32.398Z,27.20
2018-08-23T00:28:59.647Z,31.20
2018-08-23T00:31:26.881Z,32.73
2018-08-23T00:33:54.107Z,28.07
2018-08-23T00:36:21.362Z,33.13
2018-08-23T00:38:48.593Z,33.33
2018-08-23T00:41:15.822Z,32.73
2018-08-23T00:43:43.064Z,37.20
2018-08-23T00:46:14.121Z,34.17
2018-08-23T00:48:41.440Z,34.10
2018-08-23T00:51:08.675Z,37.33
2018-08-23T00:53:36.690Z,32.93
2018-08-23T00:56:17.678Z,36.20
2018-08-23T00:59:16.703Z,35.40
2018-08-23T01:01:52.253Z,40.30
2018-08-23T01:04:20.438Z,35.83
2018-08-23T01:06:47.672Z,38.13
2018-08-23T01:09:15.158Z,41.50
2018-08-23T01:11:44.997Z,37.27
2018-08-23T01:14:12.226Z,38.87
2018-08-23T01:16:39.570Z,38.30
2018-08-23T01:19:12.626Z,42.23
2018-08-23T01:21:46.557Z,37.00
2018-08-23T01:24:13.814Z,43.30
2018-08-23T01:26:41.047Z,43.23
2018-08-23T01:29:21.909Z,40.53
2018-08-23T01:31:49.181Z,40.30
2018-08-23T01:34:16.414Z,44.23
2018-08-23T01:36:43.627Z,43.10
2018-08-23T01:39:11.406Z,45.93
2018-08-23T01:41:38.664Z,44.80
2018-08-23T01:44:05.947Z,42.70
2018-08-23T01:46:42.790Z,45.63
2018-08-23T01:49:10.077Z,42.30
2018-08-23T01:51:37.344Z,47.63
2018-08-23T01:54:04.669Z,43.67
2018-08-23T01:56:32.171Z,45.90
2018-08-23T01:58:59.480Z,45.57
2018-08-23T02:01:26.758Z,40.97
2018-08-23T02:03:54.022Z,45.57
2018-08-23T02:06:24.978Z,42.30
2018-08-23T02:08:52.252Z,44.93
2018-08-23T02:11:19.508Z,40.60
2018-08-23T02:13:47.942Z,44.97
2018-08-23T02:16:15.222Z,43.87
2018-08-23T02:18:42.491Z,48.07
2018-08-23T02:21:10.584Z,44.93
2018-08-23T02:23:52.184Z,44.30
2018-08-23T02:26:19.445Z,47.47
2018-08-23T02:28:48.739Z,45.40
2018-08-23T02:31:16.098Z,49.23
2018-08-23T02:33:43.358Z,50.10
2018-08-23T02:36:17.883Z,52.23
2018-08-23T02:38:51.364Z,51.50
2018-08-23T02:41:18.625Z,49.63
2018-08-23T02:43:46.254Z,57.70
2018-08-23T02:46:13.531Z,50.00
2018-08-23T02:48:40.777Z,49.17
2018-08-23T02:51:08.198Z,44.07
2018-08-23T02:53:37.219Z,43.20
2018-08-23T02:56:06.808Z,50.43
2018-08-23T02:58:46.247Z,45.93
2018-08-23T03:01:13.536Z,50.33
2018-08-23T03:03:53.009Z,48.67
2018-08-23T03:06:26.602Z,46.50
2018-08-23T03:08:53.910Z,44.60
2018-08-23T03:11:21.220Z,39.67
2018-08-23T03:13:48.488Z,48.83
2018-08-23T03:16:15.768Z,42.43
2018-08-23T03:18:43.026Z,42.17
2018-08-23T03:21:10.284Z,46.13
2018-08-23T03:23:37.610Z,49.07
2018-08-23T03:26:04.902Z,49.63
2018-08-23T03:28:33.666Z,47.80
2018-08-23T03:31:02.134Z,43.50
2018-08-23T03:33:30.632Z,41.50
2018-08-23T03:35:57.895Z,48.23
2018-08-23T03:38:25.184Z,44.70
2018-08-23T03:40:52.422Z,39.63
2018-08-23T03:43:19.700Z,41.17
2018-08-23T03:45:46.958Z,42.53
2018-08-23T03:48:14.210Z,43.23
2018-08-23T03:50:53.369Z,43.87
2018-08-23T03:53:21.298Z,41.13
2018-08-23T03:56:03.575Z,37.73
2018-08-23T03:58:30.860Z,36.93
2018-08-23T04:01:04.704Z,41.27
2018-08-23T04:03:32.186Z,41.43
2018-08-23T04:06:15.701Z,38.93
2018-08-23T04:08:44.687Z,40.17
2018-08-23T04:11:11.943Z,40.40
2018-08-23T04:13:39.233Z,41.50
2018-08-23T04:16:06.545Z,39.13
2018-08-23T04:18:33.844Z,39.57
2018-08-23T04:21:01.116Z,39.77
2018-08-23T04:23:28.382Z,38.90
2018-08-23T04:25:55.636Z,41.27
2018-08-23T04:28:22.918Z,41.20
2018-08-23T04:30:50.173Z,43.13
2018-08-23T04:33:17.458Z,41.23
2018-08-23T04:35:44.738Z,38.90
2018-08-23T04:38:11.986Z,40.87
2018-08-23T04:40:44.812Z,36.50
2018-08-23T04:43:12.106Z,44.03
2018-08-23T04:45:39.376Z,47.37
2018-08-23T04:48:07.683Z,39.37
2018-08-23T04:50:35.347Z,41.03
2018-08-23T04:53:02.708Z,49.07
2018-08-23T04:55:29.986Z,36.33
2018-08-23T04:57:58.125Z,39.37
2018-08-23T05:00:25.979Z,40.00
2018-08-23T05:02:53.264Z,40.97
2018-08-23T05:05:20.541Z,42.20
2018-08-23T05:07:47.828Z,39.27
2018-08-23T05:10:15.096Z,40.90
2018-08-23T05:12:42.361Z,41.00
2018-08-23T05:15:09.668Z,40.03
2018-08-23T05:17:36.974Z,38.90
2018-08-23T05:20:04.287Z,40.50
2018-08-23T05:22:31.584Z,41.37
2018-08-23T05:25:04.363Z,38.87
2018-08-23T05:27:32.207Z,37.43
2018-08-23T05:29:59.503Z,36.40
2018-08-23T05:32:26.750Z,35.50
2018-08-23T05:34:54.010Z,36.37
2018-08-23T05:37:21.304Z,35.60
2018-08-23T05:39:49.702Z,32.83
2018-08-23T05:43:20.399Z,33.20
2018-08-23T05:45:49.138Z,32.30
2018-08-23T05:48:22.602Z,30.93
2018-08-23T05:50:49.936Z,29.97
2018-08-23T05:53:17.934Z,31.27
2018-08-23T05:55:47.054Z,30.87
2018-08-23T05:58:18.802Z,32.53
2018-08-23T06:00:46.178Z,29.10
2018-08-23T06:03:14.632Z,30.02
2018-08-23T06:05:41.946Z,29.27
2018-08-23T06:08:09.476Z,28.45
2018-08-23T06:10:36.736Z,26.05
2018-08-23T06:13:04.054Z,26.55
2018-08-23T06:15:31.670Z,26.05
2018-08-23T06:17:58.922Z,28.77
2018-08-23T06:20:26.191Z,28.98
2018-08-23T06:22:53.484Z,27.65
2018-08-23T06:25:20.739Z,28.62
2018-08-23T06:27:47.982Z,28.75
2018-08-23T06:30:15.256Z,27.52
2018-08-23T06:32:44.105Z,28.10
2018-08-23T06:35:11.315Z,26.95
2018-08-23T06:37:39.156Z,25.65
2018-08-23T06:40:06.512Z,23.62
2018-08-23T06:42:44.664Z,23.07
2018-08-23T06:45:11.988Z,25.45
2018-08-23T06:47:40.845Z,27.40
2018-08-23T06:50:08.140Z,23.80
2018-08-23T06:52:40.946Z,23.87
2018-08-23T06:55:13.767Z,24.70
2018-08-23T06:57:43.606Z,25.72
2018-08-23T07:00:11.022Z,26.20
2018-08-23T07:02:43.868Z,29.65
2018-08-23T07:05:11.134Z,28.10
2018-08-23T07:07:38.400Z,29.12
2018-08-23T07:10:05.695Z,29.35
2018-08-23T07:12:32.965Z,28.02
2018-08-23T07:15:00.232Z,29.85
2018-08-23T07:17:27.860Z,27.62
2018-08-23T07:19:59.180Z,28.62
2018-08-23T07:22:26.495Z,28.92
2018-08-23T07:24:55.322Z,25.48
2018-08-23T07:27:22.905Z,25.65
2018-08-23T07:29:51.275Z,23.05
2018-08-23T07:32:19.694Z,31.90
2018-08-23T07:35:28.466Z,31.10
2018-08-23T07:37:55.717Z,26.30
2018-08-23T07:40:23.890Z,27.37
2018-08-23T07:42:52.509Z,27.20
2018-08-23T07:45:19.773Z,23.95
2018-08-23T07:47:48.624Z,22.62
2018-08-23T07:50:15.940Z,21.35
2018-08-23T07:52:44.670Z,20.95
2018-08-23T07:55:11.986Z,26.87
2018-08-23T07:57:39.752Z,30.92
2018-08-23T08:00:56.779Z,28.52
2018-08-23T08:03:24.074Z,39.48
2018-08-23T08:05:51.339Z,41.95
2018-08-23T08:08:18.624Z,44.77
2018-08-23T08:10:45.962Z,40.65
2018-08-23T08:13:13.247Z,39.23
2018-08-23T08:15:40.542Z,40.43
2018-08-23T08:18:15.084Z,43.05
2018-08-23T08:20:46.969Z,43.92
2018-08-23T08:23:14.818Z,40.28
2018-08-23T08:25:42.080Z,40.98
2018-08-23T08:28:13.592Z,39.78
2018-08-23T08:30:42.690Z,42.13
2018-08-23T08:33:12.767Z,41.02
2018-08-23T08:35:41.873Z,39.58
2018-08-23T08:38:09.444Z,40.50
2018-08-23T08:40:36.752Z,38.15
2018-08-23T08:43:04.480Z,39.75
2018-08-23T08:45:31.740Z,39.20
2018-08-23T08:48:10.500Z,39.73
2018-08-23T08:50:43.583Z,38.92
2018-08-23T08:53:10.892Z,41.23
2018-08-23T08:55:38.252Z,38.85
2018-08-23T08:58:07.555Z,39.88
2018-08-23T09:00:50.799Z,39.10
2018-08-23T09:03:18.650Z,41.25
2018-08-23T09:05:46.130Z,42.43
2018-08-23T09:08:13.408Z,38.30
2018-08-23T09:10:40.671Z,38.95
2018-08-23T09:13:07.968Z,40.78
2018-08-23T09:15:35.248Z,34.33
2018-08-23T09:18:02.538Z,34.00
2018-08-23T09:20:29.949Z,34.67
2018-08-23T09:22:57.171Z,32.40
2018-08-23T09:25:27.284Z,31.97
2018-08-23T09:27:54.571Z,32.45
2018-08-23T09:30:29.988Z,27.07
2018-08-23T09:33:01.882Z,29.30
2018-08-23T09:35:29.980Z,29.20
2018-08-23T09:37:58.177Z,27.07
2018-08-23T09:40:26.141Z,29.85
2018-08-23T09:42:53.463Z,35.33
2018-08-23T09:45:20.714Z,28.35
2018-08-23T09:47:47.993Z,28.62
2018-08-23T09:50:15.271Z,20.95
2018-08-23T09:52:46.006Z,22.32
2018-08-23T09:55:14.559Z,27.05
2018-08-23T09:57:42.455Z,20.77
2018-08-23T10:00:10.966Z,17.23
2018-08-23T10:04:51.335Z,16.87
2018-08-23T10:07:24.237Z,19.07
2018-08-23T10:09:57.032Z,21.00
2018-08-23T10:12:30.092Z,19.10
2018-08-23T10:15:03.009Z,19.80
2018-08-23T10:17:35.868Z,26.85
2018-08-23T10:20:08.732Z,21.62
2018-08-23T10:22:41.764Z,17.75
2018-08-23T10:25:26.264Z,17.25
2018-08-23T10:27:53.514Z,19.30
2018-08-23T10:30:20.795Z,15.65
2018-08-23T10:32:48.068Z,15.95
2018-08-23T10:35:15.326Z,18.95
2018-08-23T10:37:42.617Z,17.67
2018-08-23T10:40:09.914Z,19.37
2018-08-23T10:42:37.178Z,18.90
2018-08-23T10:45:04.535Z,16.87
2018-08-23T10:48:34.892Z,18.10
2018-08-23T10:51:02.244Z,14.63
2018-08-23T10:53:29.512Z,18.52
2018-08-23T10:55:56.788Z,14.25
2018-08-23T10:58:24.071Z,15.85
2018-08-23T11:00:51.346Z,13.28
2018-08-23T11:03:18.663Z,15.55
2018-08-23T11:05:45.944Z,14.18
2018-08-23T11:08:18.090Z,12.25
2018-08-23T11:10:50.924Z,12.63
2018-08-23T11:13:23.930Z,10.78
2018-08-23T11:15:55.781Z,12.82
2018-08-23T11:18:28.811Z,11.33
2018-08-23T11:20:56.074Z,10.40
2018-08-23T11:23:23.443Z,12.20
2018-08-23T11:25:50.728Z,13.22
2018-08-23T11:28:21.234Z,14.65
2018-08-23T11:30:48.991Z,13.88
2018-08-23T11:33:16.337Z,13.98
2018-08-23T11:35:43.585Z,15.90
2018-08-23T11:38:10.915Z,14.55
2018-08-23T11:40:38.231Z,11.75
2018-08-23T11:43:05.558Z,11.25
2018-08-23T11:45:32.859Z,11.38
2018-08-23T11:48:00.152Z,9.80
2018-08-23T11:50:27.466Z,8.60
2018-08-23T11:52:54.812Z,9.00
2018-08-23T11:55:22.102Z,10.08
2018-08-23T11:57:49.855Z,11.85
2018-08-23T12:00:17.616Z,10.68
2018-08-23T12:02:44.879Z,9.28
2018-08-23T12:05:13.724Z,10.95
2018-08-23T12:07:47.323Z,10.53
2018-08-23T12:10:16.303Z,10.65
2018-08-23T12:12:44.238Z,8.10
2018-08-23T12:15:11.523Z,8.03
2018-08-23T12:17:39.540Z,9.28
2018-08-23T12:20:07.756Z,9.65
2018-08-23T12:22:42.068Z,7.30
2018-08-23T12:25:10.840Z,7.72
2018-08-23T12:27:38.819Z,7.00
2018-08-23T12:30:06.691Z,6.95
2018-08-23T12:32:34.680Z,7.28
2018-08-23T12:35:02.118Z,8.60
2018-08-23T12:37:35.056Z,6.80
2018-08-23T12:40:08.005Z,8.38
2018-08-23T12:42:40.960Z,6.95
2018-08-23T12:45:08.235Z,6.92
2018-08-23T12:47:35.539Z,8.43
2018-08-23T12:50:02.968Z,8.03
2018-08-23T12:52:30.583Z,7.53
2018-08-23T12:54:57.876Z,7.97
2018-08-23T12:57:25.242Z,7.62
2018-08-23T12:59:52.552Z,7.72
2018-08-23T13:02:19.902Z,7.80
2018-08-23T13:04:47.250Z,7.95
2018-08-23T13:07:14.544Z,8.13
2018-08-23T13:09:41.976Z,8.75
2018-08-23T13:12:09.262Z,6.35
2018-08-23T13:14:36.544Z,6.65
2018-08-23T13:17:03.868Z,6.00
2018-08-23T13:19:31.167Z,6.47
2018-08-23T13:22:00.270Z,7.30
2018-08-23T13:24:27.548Z,6.45
2018-08-23T13:26:54.823Z,6.28
2018-08-23T13:29:22.130Z,7.00
2018-08-23T13:31:49.417Z,7.47
2018-08-23T13:34:16.808Z,7.22
2018-08-23T13:36:44.107Z,7.30
2018-08-23T13:39:12.582Z,6.67
2018-08-23T13:41:39.838Z,7.87
2018-08-23T13:44:07.116Z,5.53
2018-08-23T13:46:34.416Z,5.30
2018-08-23T13:49:02.003Z,6.25
2018-08-23T13:51:29.288Z,5.87
2018-08-23T13:53:56.794Z,5.12
2018-08-23T13:56:24.562Z,5.50
2018-08-23T13:58:52.368Z,4.97
2018-08-23T14:01:24.017Z,4.95
2018-08-23T14:03:51.578Z,4.80
2018-08-23T14:06:18.903Z,5.80
2018-08-23T14:08:46.149Z,4.58
2018-08-23T14:11:13.481Z,4.65
2018-08-23T14:13:40.707Z,5.58
2018-08-23T14:16:08.025Z,5.17
2018-08-23T14:18:35.323Z,4.90
2018-08-23T14:21:02.647Z,3.62
2018-08-23T14:23:29.919Z,3.87
2018-08-23T14:25:57.192Z,4.65
2018-08-23T14:28:24.492Z,3.95
2018-08-23T14:30:51.843Z,4.78
2018-08-23T14:33:19.154Z,4.30
2018-08-23T14:35:46.452Z,4.33
2018-08-23T14:38:13.733Z,5.08
2018-08-23T14:40:41.002Z,4.67
2018-08-23T14:43:08.304Z,4.75
2018-08-23T14:45:35.609Z,4.20
2018-08-23T14:48:08.425Z,5.45
2018-08-23T14:50:35.968Z,3.85
2018-08-23T14:53:04.174Z,4.05
2018-08-23T14:55:37.141Z,4.00
2018-08-23T14:58:04.598Z,4.30
2018-08-23T15:00:31.920Z,4.62
2018-08-23T15:02:59.310Z,4.55
2018-08-23T15:05:26.648Z,3.47
2018-08-23T15:07:53.897Z,3.72
2018-08-23T15:10:21.176Z,5.08
2018-08-23T15:12:48.438Z,4.78
2018-08-23T15:15:15.788Z,4.00
2018-08-23T15:17:42.979Z,3.58
2018-08-23T15:20:10.242Z,3.58
2018-08-23T15:22:37.494Z,5.40
2018-08-23T15:25:05.151Z,3.98
2018-08-23T15:27:32.766Z,3.17
2018-08-23T15:30:00.843Z,3.02
2018-08-23T15:32:28.098Z,3.92
2018-08-23T15:34:55.364Z,5.10
2018-08-23T15:37:22.654Z,5.55
2018-08-23T15:39:49.911Z,5.17
2018-08-23T15:42:17.180Z,8.18
2018-08-23T15:44:44.452Z,3.75
2018-08-23T15:47:11.748Z,4.60
2018-08-23T15:49:39.032Z,3.15
2018-08-23T15:52:06.436Z,5.58
2018-08-23T15:54:33.795Z,4.28
2018-08-23T15:57:01.084Z,5.95
2018-08-23T15:59:28.355Z,3.62
2018-08-23T16:01:55.623Z,4.72
2018-08-23T16:04:22.884Z,5.42
2018-08-23T16:06:50.196Z,3.33
2018-08-23T16:09:17.473Z,6.72
2018-08-23T16:11:44.757Z,4.12
2018-08-23T16:14:12.022Z,4.00
2018-08-23T16:16:44.830Z,7.40
2018-08-23T16:19:17.716Z,4.70
2018-08-23T16:21:49.587Z,3.98
2018-08-23T16:24:17.076Z,6.90
2018-08-23T16:26:50.175Z,5.12
2018-08-23T16:29:17.421Z,6.67
2018-08-23T16:31:44.712Z,5.33
2018-08-23T16:34:11.978Z,5.53
2018-08-23T16:36:39.240Z,5.35
2018-08-23T16:39:07.208Z,6.00
2018-08-23T16:41:34.547Z,6.53
2018-08-23T16:44:01.834Z,6.53
2018-08-23T16:46:29.200Z,6.75
2018-08-23T16:48:56.470Z,7.22
2018-08-23T16:51:23.782Z,5.92
2018-08-23T16:53:51.096Z,6.55
2018-08-23T16:56:19.159Z,9.28
2018-08-23T16:58:46.436Z,7.12
2018-08-23T17:01:13.706Z,5.35
2018-08-23T17:03:40.946Z,6.83
2018-08-23T17:06:08.327Z,6.40
2018-08-23T17:08:35.595Z,6.75
2018-08-23T17:11:02.964Z,8.70
2018-08-23T17:13:36.442Z,7.33
2018-08-23T17:16:10.135Z,9.83
2018-08-23T17:18:37.501Z,10.03
2018-08-23T17:21:04.796Z,6.45
2018-08-23T17:23:32.048Z,7.50
2018-08-23T17:25:59.321Z,8.53
2018-08-23T17:28:26.590Z,7.78
2018-08-23T17:30:53.871Z,7.30
2018-08-23T17:33:21.325Z,6.97
2018-08-23T17:35:48.586Z,7.47
2018-08-23T17:38:15.899Z,7.20
2018-08-23T17:40:43.157Z,7.83
2018-08-23T17:43:10.416Z,7.42
2018-08-23T17:45:37.666Z,9.25
2018-08-23T17:48:05.021Z,8.55
2018-08-23T17:50:32.254Z,9.00
2018-08-23T17:52:59.552Z,8.80
2018-08-23T17:55:26.818Z,9.30
2018-08-23T17:57:54.051Z,8.70
2018-08-23T18:00:21.378Z,10.90
2018-08-23T18:02:48.682Z,9.98
2018-08-23T18:05:15.934Z,9.85
2018-08-23T18:07:43.258Z,9.83
2018-08-23T18:10:10.527Z,9.70
2018-08-23T18:12:37.794Z,11.00
2018-08-23T18:15:07.984Z,9.08
2018-08-23T18:17:35.264Z,12.90
2018-08-23T18:20:02.657Z,10.05
2018-08-23T18:22:29.949Z,8.73
2018-08-23T18:24:57.240Z,11.35
2018-08-23T18:27:24.517Z,10.28
2018-08-23T18:29:51.781Z,9.30
2018-08-23T18:32:19.135Z,10.95
2018-08-23T18:34:46.328Z,7.75
2018-08-23T18:37:13.629Z,9.55
2018-08-23T18:39:40.909Z,9.80
2018-08-23T18:42:08.384Z,8.00
2018-08-23T18:44:35.673Z,8.33
2018-08-23T18:47:02.955Z,8.68
2018-08-23T18:49:30.234Z,9.03
2018-08-23T18:51:57.572Z,7.97
2018-08-23T18:54:24.856Z,8.85
2018-08-23T18:56:52.158Z,8.18
2018-08-23T18:59:19.451Z,10.72
2018-08-23T19:01:46.720Z,12.63
2018-08-23T19:04:14.010Z,7.28
2018-08-23T19:06:41.292Z,11.83
2018-08-23T19:09:11.016Z,10.98
2018-08-23T19:11:38.280Z,9.43
2018-08-23T19:14:05.580Z,7.55
2018-08-23T19:16:38.462Z,11.03
2018-08-23T19:19:06.092Z,11.78
2018-08-23T19:21:33.279Z,9.30
2018-08-23T19:24:00.548Z,9.05
2018-08-23T19:26:27.821Z,9.48
2018-08-23T19:28:55.160Z,8.30
2018-08-23T19:31:22.447Z,8.55
2018-08-23T19:33:49.699Z,10.70
2018-08-23T19:36:16.958Z,9.38
2018-08-23T19:38:44.270Z,9.18
2018-08-23T19:41:11.543Z,8.68
2018-08-23T19:43:38.833Z,9.35
2018-08-23T19:46:11.724Z,11.50
2018-08-23T19:48:39.571Z,10.63
2018-08-23T19:51:07.105Z,13.25
2018-08-23T19:53:34.404Z,11.20
2018-08-23T19:56:01.700Z,11.55
2018-08-23T19:58:28.999Z,10.72
2018-08-23T20:00:56.281Z,11.43
2018-08-23T20:03:23.566Z,12.60
2018-08-23T20:05:50.864Z,11.20
2018-08-23T20:08:18.248Z,11.63
2018-08-23T20:10:45.552Z,13.48
2018-08-23T20:13:12.834Z,13.38
2018-08-23T20:15:40.126Z,10.25
2018-08-23T20:18:07.435Z,10.58
2018-08-23T20:20:34.731Z,10.53
2018-08-23T20:23:02.017Z,10.10
2018-08-23T20:25:29.275Z,10.70
2018-08-23T20:27:56.580Z,10.88
2018-08-23T20:30:23.892Z,9.68
2018-08-23T20:32:51.168Z,14.45
2018-08-23T20:35:18.531Z,10.50
2018-08-23T20:37:45.814Z,10.05
2018-08-23T20:40:13.124Z,9.08
2018-08-23T20:42:40.417Z,10.13
2018-08-23T20:45:07.731Z,10.78
2018-08-23T20:47:34.997Z,9.63
2018-08-23T20:50:02.334Z,10.60
2018-08-23T20:52:29.590Z,10.05
2018-08-23T20:54:56.892Z,12.60
2018-08-23T20:57:24.196Z,9.50
2018-08-23T20:59:51.463Z,8.60
2018-08-23T21:02:18.733Z,9.65
2018-08-23T21:04:46.024Z,10.23
2018-08-23T21:07:13.322Z,10.98
2018-08-23T21:09:40.606Z,9.50
2018-08-23T21:12:07.984Z,10.28
2018-08-23T21:14:35.250Z,10.65
2018-08-23T21:17:02.529Z,10.55
2018-08-23T21:19:29.848Z,9.43
2018-08-23T21:21:57.123Z,10.98
2018-08-23T21:24:24.463Z,10.45
2018-08-23T21:26:51.732Z,10.88
2018-08-23T21:29:19.026Z,10.48
2018-08-23T21:31:46.316Z,12.55
2018-08-23T21:34:13.592Z,10.43
2018-08-23T21:36:40.860Z,10.50
2018-08-23T21:39:08.955Z,10.58
2018-08-23T21:41:36.262Z,10.58
2018-08-23T21:44:03.982Z,9.40
2018-08-23T21:46:31.279Z,9.45
2018-08-23T21:48:58.559Z,11.63
2018-08-23T21:51:25.882Z,9.98
2018-08-23T21:53:53.158Z,11.78
2018-08-23T21:56:20.419Z,10.23
2018-08-23T21:58:47.723Z,9.53
2018-08-23T22:01:15.011Z,9.15
2018-08-23T22:03:42.320Z,9.65
2018-08-23T22:06:09.622Z,8.18
2018-08-23T22:08:36.944Z,8.80
2018-08-23T22:11:04.387Z,8.25
2018-08-23T22:13:37.366Z,9.50
2018-08-23T22:16:04.716Z,8.03
2018-08-23T22:18:32.041Z,9.25
2018-08-23T22:20:59.342Z,8.15
2018-08-23T22:23:26.638Z,10.08
2018-08-23T22:25:53.912Z,7.70
2018-08-23T22:28:21.218Z,7.85
2018-08-23T22:30:48.539Z,7.55
2018-08-23T22:33:15.835Z,11.03
2018-08-23T22:35:43.104Z,6.83
2018-08-23T22:38:10.677Z,7.45
2018-08-23T22:40:38.166Z,8.68
2018-08-23T22:43:05.650Z,8.13
2018-08-23T22:45:32.986Z,8.38
2018-08-23T22:48:00.355Z,7.72
2018-08-23T22:50:27.661Z,7.72
2018-08-23T22:52:55.114Z,7.00
2018-08-23T22:55:22.408Z,7.28
2018-08-23T22:57:49.676Z,6.28
2018-08-23T23:00:17.032Z,6.60
2018-08-23T23:02:44.342Z,7.47
2018-08-23T23:05:11.719Z,6.28
2018-08-23T23:07:38.973Z,5.85
2018-08-23T23:10:06.861Z,6.90
2018-08-23T23:12:34.215Z,6.78
2018-08-23T23:15:05.415Z,7.72
2018-08-23T23:17:32.753Z,7.30
2018-08-23T23:20:00.064Z,7.50
2018-08-23T23:22:27.332Z,6.60
2018-08-23T23:25:01.358Z,8.45
2018-08-23T23:27:28.835Z,8.18
2018-08-23T23:29:56.394Z,6.57
2018-08-23T23:32:23.692Z,7.20
2018-08-23T23:34:51.011Z,7.42
2018-08-23T23:37:18.259Z,7.85
2018-08-23T23:39:45.538Z,5.90
2018-08-23T23:42:12.838Z,6.10
2018-08-23T23:44:40.210Z,6.28
2018-08-23T23:47:07.408Z,5.53
2018-08-23T23:49:34.650Z,7.58
2018-08-23T23:52:01.925Z,7.25
2018-08-23T23:54:29.188Z,5.50
2018-08-23T23:56:56.468Z,5.22
2018-08-23T23:59:23.728Z,5.70
